Time;durP1;ratioP1;P1;durP2;ratioP2;P2;SDS_P1;SDS_P2;PMS_P1;PMS_P2;Temp;Humidity;BMP_temperature;BMP_pressure;BME280_temperature;BME280_humidity;BME280_pressure;Samples;Min_cycle;Max_cycle;Signal;HPM_P1;HPM_P2
2022/07/25 00:00:22;;;;;;;3.20;2.90;;;21.70;99.90;;;;;;5093510;28;20039;-69
2022/07/25 00:02:47;;;;;;;3.13;2.90;;;21.80;99.90;;;;;;5111011;27;20040;-69
2022/07/25 00:05:13;;;;;;;3.33;3.08;;;21.80;99.90;;;;;;5111419;28;20046;-69
2022/07/25 00:07:38;;;;;;;3.50;3.20;;;21.80;99.90;;;;;;5111578;28;20047;-69
2022/07/25 00:10:04;;;;;;;3.50;3.20;;;21.70;99.90;;;;;;5112440;27;20028;-69
2022/07/25 00:12:30;;;;;;;3.22;2.90;;;21.70;99.90;;;;;;5090865;28;20035;-69
2022/07/25 00:14:56;;;;;;;3.67;3.30;;;21.70;99.90;;;;;;5107328;27;20394;-69
2022/07/25 00:17:21;;;;;;;3.95;3.53;;;21.70;99.90;;;;;;5117551;27;20126;-69
2022/07/25 00:19:47;;;;;;;3.60;3.30;;;21.70;99.90;;;;;;5119609;27;20374;-69
2022/07/25 00:22:12;;;;;;;4.13;3.70;;;21.70;99.90;;;;;;5111323;28;20123;-69
2022/07/25 00:24:38;;;;;;;3.88;3.58;;;21.70;99.90;;;;;;5110962;28;20043;-69
2022/07/25 00:27:04;;;;;;;3.92;3.63;;;21.60;99.90;;;;;;5116521;27;20042;-69
2022/07/25 00:29:29;;;;;;;3.85;3.30;;;21.60;99.90;;;;;;5130352;27;20144;-69
2022/07/25 00:31:55;;;;;;;3.97;3.67;;;21.60;99.90;;;;;;5130564;27;20388;-69
2022/07/25 00:34:20;;;;;;;4.47;4.18;;;21.50;99.90;;;;;;5111683;28;20075;-69
2022/07/25 00:36:46;;;;;;;4.45;4.05;;;21.50;99.90;;;;;;5110666;28;20036;-69
2022/07/25 00:39:12;;;;;;;4.95;4.45;;;21.50;99.90;;;;;;5110682;28;20071;-69
2022/07/25 00:41:37;;;;;;;4.93;4.50;;;21.50;99.90;;;;;;5119034;28;20163;-69
2022/07/25 00:44:03;;;;;;;5.57;4.90;;;21.40;99.90;;;;;;5127365;28;20035;-69
2022/07/25 00:46:29;;;;;;;6.35;5.03;;;21.40;99.90;;;;;;5132676;27;20364;-70
2022/07/25 00:48:54;;;;;;;6.32;5.47;;;21.40;99.90;;;;;;5130151;28;20122;-69
2022/07/25 00:51:20;;;;;;;5.90;5.30;;;21.30;99.90;;;;;;5128484;28;20054;-69
2022/07/25 00:53:46;;;;;;;7.55;5.40;;;21.20;99.90;;;;;;5106310;28;20056;-69
2022/07/25 00:56:12;;;;;;;5.78;5.28;;;21.20;99.90;;;;;;5127600;28;20042;-69
2022/07/25 00:58:37;;;;;;;5.53;5.13;;;21.10;99.90;;;;;;5129042;28;20039;-69
2022/07/25 01:01:03;;;;;;;6.03;5.43;;;21.10;99.90;;;;;;5116475;28;20685;-69
2022/07/25 01:03:29;;;;;;;7.00;6.05;;;21.00;99.90;;;;;;5119124;27;20084;-69
2022/07/25 01:05:55;;;;;;;6.53;5.93;;;21.00;99.90;;;;;;5129162;27;20046;-69
2022/07/25 01:08:21;;;;;;;5.75;5.25;;;20.90;99.90;;;;;;5115615;27;20070;-69
2022/07/25 01:10:47;;;;;;;6.22;5.80;;;20.90;99.90;;;;;;5128544;27;20035;-69
2022/07/25 01:13:14;;;;;;;6.65;6.07;;;20.80;99.90;;;;;;5115077;27;20127;-69
2022/07/25 01:15:41;;;;;;;7.15;6.45;;;20.70;99.90;;;;;;5130337;27;20043;-69
2022/07/25 01:18:06;;;;;;;7.30;6.68;;;20.70;99.90;;;;;;5126112;27;20813;-70
2022/07/25 01:20:32;;;;;;;7.22;6.57;;;20.70;99.90;;;;;;5119924;27;20039;-69
2022/07/25 01:22:59;;;;;;;8.10;7.40;;;20.70;99.90;;;;;;5116679;27;20691;-69
2022/07/25 01:25:25;;;;;;;7.80;6.65;;;20.60;99.90;;;;;;5124637;27;20087;-69
2022/07/25 01:27:52;;;;;;;7.68;6.88;;;20.60;99.90;;;;;;5113934;27;20122;-69
2022/07/25 01:30:19;;;;;;;8.52;7.65;;;20.60;99.90;;;;;;5123961;27;20475;-69
2022/07/25 01:32:45;;;;;;;8.18;7.47;;;20.60;99.90;;;;;;5128941;27;20414;-69
2022/07/25 01:35:11;;;;;;;8.13;7.43;;;20.50;99.90;;;;;;5132317;27;20042;-70
2022/07/25 01:37:37;;;;;;;8.23;7.35;;;20.50;99.90;;;;;;5124187;27;20034;-70
2022/07/25 01:40:04;;;;;;;9.48;8.48;;;20.40;99.90;;;;;;5131373;27;20040;-69
2022/07/25 01:42:29;;;;;;;7.97;7.38;;;20.40;99.90;;;;;;5134108;27;20077;-69
2022/07/25 01:44:55;;;;;;;8.80;8.00;;;20.40;99.90;;;;;;5128017;27;20059;-69
2022/07/25 01:47:21;;;;;;;9.93;8.85;;;20.40;99.90;;;;;;5118146;27;20519;-69
2022/07/25 01:49:47;;;;;;;9.57;8.80;;;20.30;99.90;;;;;;5132673;27;20122;-69
2022/07/25 01:52:13;;;;;;;9.60;8.60;;;20.30;99.90;;;;;;5131417;27;20130;-69
2022/07/25 01:54:39;;;;;;;9.15;8.35;;;20.30;99.90;;;;;;5132333;27;20050;-69
2022/07/25 01:57:06;;;;;;;10.50;8.68;;;20.20;99.90;;;;;;5125517;27;20054;-69
2022/07/25 01:59:32;;;;;;;9.80;8.85;;;20.20;99.90;;;;;;5124243;27;20030;-69
2022/07/25 02:01:58;;;;;;;9.93;9.13;;;20.20;99.90;;;;;;5127003;27;20453;-69
2022/07/25 02:04:23;;;;;;;10.50;9.60;;;20.20;99.90;;;;;;5121501;27;20038;-69
2022/07/25 02:06:49;;;;;;;9.73;8.88;;;20.20;99.90;;;;;;5126995;27;20031;-69
2022/07/25 02:09:15;;;;;;;10.02;9.23;;;20.10;99.90;;;;;;5125935;27;20487;-69
2022/07/25 02:11:40;;;;;;;9.85;8.93;;;20.10;99.90;;;;;;5131988;27;20115;-69
2022/07/25 02:14:06;;;;;;;10.38;9.48;;;20.10;99.90;;;;;;5133196;27;20092;-69
2022/07/25 02:16:32;;;;;;;9.55;8.65;;;20.10;99.90;;;;;;5131889;27;20070;-70
2022/07/25 02:18:57;;;;;;;10.80;9.25;;;20.10;99.90;;;;;;5118177;27;20063;-69
2022/07/25 02:21:23;;;;;;;10.50;9.52;;;20.00;99.90;;;;;;5128167;27;20039;-69
2022/07/25 02:23:49;;;;;;;10.07;9.27;;;20.00;99.90;;;;;;5114063;27;20092;-69
2022/07/25 02:26:15;;;;;;;9.75;8.93;;;20.00;99.90;;;;;;5132761;27;20045;-69
2022/07/25 02:28:40;;;;;;;9.25;8.45;;;19.90;99.90;;;;;;5129143;27;20059;-69
2022/07/25 02:31:07;;;;;;;10.20;9.40;;;19.90;99.90;;;;;;5120913;27;20039;-69
2022/07/25 02:33:32;;;;;;;10.55;9.55;;;19.90;99.90;;;;;;5111182;28;20040;-69
2022/07/25 02:35:58;;;;;;;10.90;10.00;;;19.90;99.90;;;;;;5114001;27;20051;-69
2022/07/25 02:38:23;;;;;;;11.50;10.40;;;19.80;99.90;;;;;;5103003;28;20126;-69
2022/07/25 02:40:50;;;;;;;11.55;10.40;;;19.80;99.90;;;;;;5116702;27;20063;-69
2022/07/25 02:43:16;;;;;;;11.77;10.75;;;19.80;99.90;;;;;;5111304;27;20071;-69
2022/07/25 02:45:42;;;;;;;11.52;10.50;;;19.80;99.90;;;;;;5114072;27;20038;-69
2022/07/25 02:48:08;;;;;;;11.40;10.30;;;19.80;99.90;;;;;;5130542;27;20392;-69
2022/07/25 02:50:35;;;;;;;11.40;10.38;;;19.80;99.90;;;;;;5114125;27;20064;-69
2022/07/25 02:53:01;;;;;;;11.13;10.10;;;19.70;99.90;;;;;;5106582;27;20047;-69
2022/07/25 02:55:27;;;;;;;11.73;10.52;;;19.70;99.90;;;;;;5131028;27;20039;-69
2022/07/25 02:57:53;;;;;;;10.68;9.77;;;19.70;99.90;;;;;;5122470;27;20035;-69
2022/07/25 03:00:18;;;;;;;11.80;10.68;;;19.70;99.90;;;;;;5128745;27;20496;-69
2022/07/25 03:02:44;;;;;;;12.43;11.18;;;19.70;99.90;;;;;;5119898;27;20047;-69
2022/07/25 03:05:13;;;;;;;11.77;10.60;;;19.70;99.90;;;;;;5091416;28;20362;-69
2022/07/25 03:07:39;;;;;;;11.43;10.52;;;19.70;99.90;;;;;;5107246;27;20039;-69
2022/07/25 03:10:06;;;;;;;11.73;10.70;;;19.70;99.90;;;;;;5113410;28;20362;-69
2022/07/25 03:12:32;;;;;;;11.93;10.77;;;19.70;99.90;;;;;;5115223;27;20047;-69
2022/07/25 03:14:58;;;;;;;12.15;11.05;;;19.70;99.90;;;;;;5133351;27;20031;-69
2022/07/25 03:17:24;;;;;;;12.43;11.15;;;19.70;99.90;;;;;;5114192;27;20045;-69
2022/07/25 03:19:50;;;;;;;11.27;10.25;;;19.70;99.90;;;;;;5126069;27;20349;-69
2022/07/25 03:22:16;;;;;;;11.63;10.63;;;19.70;99.90;;;;;;5114688;27;20040;-69
2022/07/25 03:24:42;;;;;;;11.70;10.52;;;19.70;99.90;;;;;;5111827;28;20115;-69
2022/07/25 03:27:08;;;;;;;12.35;11.23;;;19.80;99.90;;;;;;5111888;28;20043;-69
2022/07/25 03:29:34;;;;;;;11.85;10.82;;;19.80;99.90;;;;;;5112918;28;20031;-69
2022/07/25 03:32:00;;;;;;;12.00;10.90;;;19.80;99.90;;;;;;5128167;27;20050;-69
2022/07/25 03:34:26;;;;;;;11.55;10.55;;;19.80;99.90;;;;;;5131132;27;20400;-69
2022/07/25 03:36:51;;;;;;;11.57;10.50;;;19.80;99.90;;;;;;5124518;27;20052;-69
2022/07/25 03:39:17;;;;;;;11.52;10.52;;;19.80;99.90;;;;;;5115777;27;20081;-69
2022/07/25 03:41:42;;;;;;;11.45;10.35;;;19.80;99.90;;;;;;5111869;28;20074;-69
2022/07/25 03:44:08;;;;;;;12.15;11.10;;;19.80;99.90;;;;;;5109322;28;20067;-69
2022/07/25 03:46:34;;;;;;;11.82;10.73;;;19.70;99.90;;;;;;5110506;28;20024;-69
2022/07/25 03:48:59;;;;;;;11.27;10.07;;;19.70;99.90;;;;;;5111809;28;20592;-69
2022/07/25 03:51:25;;;;;;;12.00;10.77;;;19.70;99.90;;;;;;5112287;28;20036;-69
2022/07/25 03:54:03;;;;;;;11.00;10.10;;;19.70;99.90;;;;;;5109835;28;20118;-69
2022/07/25 03:56:30;;;;;;;10.75;9.85;;;19.70;99.90;;;;;;5118123;27;20084;-69
2022/07/25 03:58:56;;;;;;;11.38;10.38;;;19.80;99.90;;;;;;5114289;27;20131;-69
2022/07/25 04:01:22;;;;;;;12.30;11.20;;;19.70;99.90;;;;;;5125807;27;20142;-69
2022/07/25 04:03:47;;;;;;;11.82;10.80;;;19.70;99.90;;;;;;5121736;27;20080;-69
2022/07/25 04:06:13;;;;;;;12.05;10.95;;;19.70;99.90;;;;;;5126695;27;20035;-70
2022/07/25 04:08:38;;;;;;;11.38;10.35;;;19.70;99.90;;;;;;5090300;28;20398;-69
2022/07/25 04:11:04;;;;;;;12.10;11.10;;;19.70;99.90;;;;;;5091804;28;20112;-69
2022/07/25 04:13:30;;;;;;;12.18;11.02;;;19.70;99.90;;;;;;5103606;28;20055;-69
2022/07/25 04:15:56;;;;;;;11.05;10.15;;;19.70;99.90;;;;;;5116863;27;20035;-69
2022/07/25 04:18:21;;;;;;;10.85;9.95;;;19.70;99.90;;;;;;5114734;27;20096;-69
2022/07/25 04:20:47;;;;;;;11.93;10.85;;;19.70;99.90;;;;;;5110901;28;20036;-69
2022/07/25 04:23:12;;;;;;;10.50;9.70;;;19.70;99.90;;;;;;5104568;28;20061;-69
2022/07/25 04:25:38;;;;;;;12.40;10.52;;;19.70;99.90;;;;;;5106101;28;20137;-69
2022/07/25 04:28:04;;;;;;;11.98;10.65;;;19.80;99.90;;;;;;5110008;28;20063;-70
2022/07/25 04:30:29;;;;;;;12.43;11.23;;;19.80;99.90;;;;;;5110345;28;20024;-69
2022/07/25 04:32:55;;;;;;;11.57;10.50;;;19.80;99.90;;;;;;5114857;27;20122;-69
2022/07/25 04:35:21;;;;;;;11.05;10.13;;;19.90;99.90;;;;;;5116023;27;20032;-69
2022/07/25 04:37:47;;;;;;;12.75;10.50;;;20.00;99.90;;;;;;5110717;28;20598;-69
2022/07/25 04:40:12;;;;;;;11.05;10.15;;;20.10;99.90;;;;;;5117420;27;20047;-69
2022/07/25 04:42:38;;;;;;;11.23;10.18;;;20.10;99.90;;;;;;5114098;28;20043;-69
2022/07/25 04:45:04;;;;;;;11.32;10.27;;;20.20;99.90;;;;;;5132485;28;20133;-69
2022/07/25 04:47:29;;;;;;;11.43;10.43;;;20.30;99.90;;;;;;5129393;28;20477;-69
2022/07/25 04:49:55;;;;;;;12.55;11.35;;;20.50;99.90;;;;;;5106247;28;20047;-69
2022/07/25 04:52:20;;;;;;;11.88;10.77;;;20.60;99.90;;;;;;5108506;28;20093;-70
2022/07/25 04:54:46;;;;;;;12.52;11.35;;;20.80;99.90;;;;;;5095703;28;20055;-69
2022/07/25 04:57:12;;;;;;;12.93;11.07;;;20.90;99.90;;;;;;5091405;28;20051;-69
2022/07/25 04:59:37;;;;;;;11.20;10.20;;;21.10;99.90;;;;;;5105398;28;20432;-69
2022/07/25 05:02:03;;;;;;;11.48;10.40;;;21.20;99.90;;;;;;5109974;28;20040;-69
2022/07/25 05:04:28;;;;;;;12.02;11.02;;;21.20;99.90;;;;;;5123730;28;20043;-69
2022/07/25 05:06:54;;;;;;;11.73;10.68;;;21.20;99.90;;;;;;5132474;28;20457;-69
2022/07/25 05:09:19;;;;;;;11.77;10.68;;;21.30;99.90;;;;;;5115950;28;20484;-69
2022/07/25 05:11:45;;;;;;;11.20;10.15;;;21.30;99.90;;;;;;5110244;28;20089;-69
2022/07/25 05:14:10;;;;;;;11.55;10.40;;;21.40;99.90;;;;;;5110907;28;20043;-69
2022/07/25 05:16:36;;;;;;;12.13;10.98;;;21.50;99.90;;;;;;5111650;28;20038;-69
2022/07/25 05:19:02;;;;;;;12.50;11.45;;;21.60;99.90;;;;;;5104259;28;20044;-69
2022/07/25 05:21:28;;;;;;;12.40;11.20;;;21.70;99.90;;;;;;5089908;28;20040;-69
2022/07/25 05:23:54;;;;;;;12.32;11.13;;;21.80;99.90;;;;;;5089871;28;20047;-69
2022/07/25 05:26:19;;;;;;;12.55;11.35;;;21.90;99.90;;;;;;5106003;28;20396;-69
2022/07/25 05:28:45;;;;;;;12.23;11.13;;;22.00;99.90;;;;;;5111621;28;20074;-69
2022/07/25 05:31:10;;;;;;;12.35;11.13;;;22.10;99.90;;;;;;5115042;28;20036;-70
2022/07/25 05:33:36;;;;;;;12.40;11.20;;;22.10;99.90;;;;;;5110111;28;20028;-69
2022/07/25 05:36:03;;;;;;;14.48;11.27;;;22.20;99.90;;;;;;5111381;28;20107;-69
2022/07/25 05:38:29;;;;;;;12.25;11.15;;;22.20;99.90;;;;;;5098541;28;20040;-70
2022/07/25 05:40:55;;;;;;;12.13;10.93;;;22.30;99.90;;;;;;5118015;28;20392;-69
2022/07/25 05:43:20;;;;;;;13.10;11.77;;;22.30;99.90;;;;;;5093441;28;20044;-69
2022/07/25 05:45:46;;;;;;;12.68;11.50;;;22.30;99.90;;;;;;5109947;28;20480;-69
2022/07/25 05:48:13;;;;;;;12.52;11.27;;;22.40;99.90;;;;;;5111514;28;20036;-69
2022/07/25 05:50:39;;;;;;;12.80;11.50;;;22.50;99.90;;;;;;5102074;28;20032;-70
2022/07/25 05:53:05;;;;;;;12.40;11.13;;;22.60;99.90;;;;;;5094522;28;20063;-69
2022/07/25 05:55:30;;;;;;;12.80;10.98;;;22.60;99.90;;;;;;5092938;28;20044;-70
2022/07/25 05:57:56;;;;;;;11.60;10.50;;;22.70;99.90;;;;;;5098334;28;20050;-69
2022/07/25 06:00:21;;;;;;;12.40;11.15;;;22.80;99.90;;;;;;5114512;28;20063;-69
2022/07/25 06:02:47;;;;;;;15.43;11.32;;;23.00;99.90;;;;;;5113264;28;20047;-69
2022/07/25 06:05:12;;;;;;;12.43;10.40;;;23.10;99.90;;;;;;5113549;28;20043;-70
2022/07/25 06:07:38;;;;;;;12.30;10.98;;;23.20;99.90;;;;;;5114285;28;20036;-69
2022/07/25 06:10:04;;;;;;;11.45;10.18;;;23.30;99.90;;;;;;5113392;28;20118;-70
2022/07/25 06:12:32;;;;;;;11.40;10.18;;;23.70;99.90;;;;;;5114430;28;20044;-70
2022/07/25 06:15:00;;;;;;;10.82;9.70;;;24.30;99.90;;;;;;5113029;28;20544;-70
2022/07/25 06:17:26;;;;;;;10.75;9.75;;;24.60;99.90;;;;;;5113401;28;20119;-70
2022/07/25 06:19:51;;;;;;;11.30;10.00;;;24.80;99.90;;;;;;5113199;28;20673;-70
2022/07/25 06:22:18;;;;;;;11.05;9.95;;;24.90;99.90;;;;;;5114353;28;20065;-70
2022/07/25 06:24:44;;;;;;;12.65;10.68;;;25.00;99.90;;;;;;5113162;28;20064;-70
2022/07/25 06:27:10;;;;;;;10.50;9.60;;;25.40;99.90;;;;;;5113169;28;20468;-70
2022/07/25 06:29:37;;;;;;;10.88;9.88;;;25.60;99.90;;;;;;5114097;27;20066;-70
2022/07/25 06:32:03;;;;;;;10.95;9.82;;;25.80;99.70;;;;;;5114204;28;20055;-71
2022/07/25 06:34:29;;;;;;;11.13;9.98;;;25.50;99.50;;;;;;5111166;28;20035;-70
2022/07/25 06:36:56;;;;;;;11.82;10.60;;;25.40;99.50;;;;;;5114954;27;20035;-70
2022/07/25 06:39:22;;;;;;;11.48;10.48;;;25.10;99.10;;;;;;5114319;27;20034;-70
2022/07/25 06:41:47;;;;;;;12.35;9.77;;;25.10;99.30;;;;;;5116508;27;20415;-70
2022/07/25 06:44:13;;;;;;;11.77;10.77;;;25.30;99.20;;;;;;5114307;28;20495;-70
2022/07/25 06:46:38;;;;;;;12.52;10.07;;;25.70;99.00;;;;;;5113913;28;20608;-70
2022/07/25 06:49:04;;;;;;;10.73;9.82;;;26.50;97.80;;;;;;5111063;27;20085;-70
2022/07/25 06:51:29;;;;;;;10.52;9.63;;;26.90;97.40;;;;;;5091414;28;20063;-70
2022/07/25 06:53:55;;;;;;;10.65;9.52;;;27.00;97.10;;;;;;5093183;28;20138;-70
2022/07/25 06:56:21;;;;;;;10.70;9.70;;;27.20;96.80;;;;;;5101579;27;20048;-71
2022/07/25 06:58:47;;;;;;;11.15;10.15;;;28.00;95.50;;;;;;5109669;28;20054;-71
2022/07/25 07:01:12;;;;;;;10.30;9.30;;;28.90;94.40;;;;;;5106692;28;20039;-71
2022/07/25 07:03:38;;;;;;;10.27;9.32;;;29.50;93.50;;;;;;5115416;27;20400;-71
2022/07/25 07:06:06;;;;;;;9.90;8.95;;;30.10;91.60;;;;;;5131691;27;20078;-72
2022/07/25 07:08:32;;;;;;;9.73;8.93;;;30.80;91.50;;;;;;5108956;28;20031;-71
2022/07/25 07:10:58;;;;;;;9.45;8.48;;;31.70;90.00;;;;;;5099622;28;20032;-71
2022/07/25 07:13:23;;;;;;;9.68;8.77;;;31.80;86.20;;;;;;5110393;28;20043;-71
2022/07/25 07:15:49;;;;;;;9.05;8.15;;;31.80;85.20;;;;;;5113193;28;20039;-71
2022/07/25 07:18:16;;;;;;;9.48;8.68;;;31.90;85.80;;;;;;5113187;28;20035;-71
2022/07/25 07:20:43;;;;;;;9.05;8.25;;;31.90;84.00;;;;;;5119281;27;20027;-71
2022/07/25 07:23:08;;;;;;;10.10;9.15;;;31.60;83.10;;;;;;5116155;27;20043;-72
2022/07/25 07:25:34;;;;;;;9.32;8.43;;;30.90;83.70;;;;;;5113113;28;20035;-70
2022/07/25 07:28:00;;;;;;;10.10;9.02;;;30.20;85.50;;;;;;5126911;27;20037;-71
2022/07/25 07:30:25;;;;;;;9.32;8.27;;;29.90;86.00;;;;;;5123750;27;20663;-70
2022/07/25 07:32:51;;;;;;;9.63;8.75;;;29.70;87.50;;;;;;5118274;27;20385;-71
2022/07/25 07:35:18;;;;;;;11.02;8.90;;;29.40;87.70;;;;;;5116402;27;20042;-71
2022/07/25 07:37:44;;;;;;;8.55;7.75;;;29.00;87.50;;;;;;5114663;27;20043;-72
2022/07/25 07:40:14;;;;;;;9.68;8.27;;;28.60;87.40;;;;;;5108833;28;20036;-71
2022/07/25 07:42:44;;;;;;;10.45;9.57;;;28.40;89.30;;;;;;5116950;27;20050;-71
2022/07/25 07:45:12;;;;;;;10.70;9.60;;;28.10;90.30;;;;;;5124063;27;20035;-70
2022/07/25 07:47:38;;;;;;;11.48;9.77;;;27.80;91.00;;;;;;5111379;28;20092;-70
2022/07/25 07:50:04;;;;;;;10.35;9.30;;;27.60;91.30;;;;;;5112577;28;20048;-70
2022/07/25 07:52:29;;;;;;;11.23;10.13;;;27.50;91.30;;;;;;5112238;28;20051;-70
2022/07/25 07:57:39;;;;;;;10.45;9.55;;;27.20;91.60;;;;;;5112466;28;20489;-70
2022/07/25 08:00:05;;;;;;;10.40;9.35;;;27.20;91.70;;;;;;5108340;28;20043;-70
2022/07/25 08:02:31;;;;;;;11.32;10.27;;;27.20;92.10;;;;;;5107632;28;20446;-70
2022/07/25 08:04:57;;;;;;;10.65;9.65;;;27.30;92.00;;;;;;5110777;28;20059;-70
2022/07/25 08:07:22;;;;;;;9.45;8.65;;;27.50;91.60;;;;;;5120937;27;20047;-70
2022/07/25 08:09:48;;;;;;;10.43;9.25;;;27.40;92.20;;;;;;5118531;27;20465;-70
2022/07/25 08:12:13;;;;;;;10.32;9.45;;;27.40;92.50;;;;;;5130283;27;20189;-70
2022/07/25 08:14:39;;;;;;;10.02;9.13;;;27.40;92.10;;;;;;5114826;27;20470;-70
2022/07/25 08:17:05;;;;;;;9.50;8.50;;;27.20;91.80;;;;;;5125393;27;20122;-69
2022/07/25 08:19:31;;;;;;;9.07;8.25;;;27.10;92.30;;;;;;5125182;27;20032;-70
2022/07/25 08:21:56;;;;;;;10.43;8.38;;;27.00;92.50;;;;;;5113949;27;20031;-70
2022/07/25 08:24:22;;;;;;;8.52;7.72;;;26.90;92.10;;;;;;5114019;27;20096;-69
2022/07/25 08:26:47;;;;;;;11.38;8.13;;;26.80;92.50;;;;;;5121360;27;20031;-70
2022/07/25 08:29:13;;;;;;;8.50;7.28;;;26.70;92.60;;;;;;5132399;27;20047;-70
2022/07/25 08:31:39;;;;;;;7.38;6.65;;;;;;;;;;5132506;27;20118;-70
2022/07/25 08:34:04;;;;;;;7.68;6.63;;;26.50;92.90;;;;;;5123548;27;20035;-70
2022/07/25 08:36:30;;;;;;;10.23;6.50;;;26.50;93.40;;;;;;5128250;27;20042;-70
2022/07/25 08:38:55;;;;;;;6.57;5.97;;;26.50;93.50;;;;;;5121420;27;20054;-70
2022/07/25 08:41:21;;;;;;;7.95;5.80;;;26.70;92.80;;;;;;5112353;28;20035;-70
2022/07/25 08:43:49;;;;;;;6.30;5.70;;;26.90;92.30;;;;;;5111760;28;20040;-70
2022/07/25 08:46:15;;;;;;;6.07;4.93;;;27.00;92.30;;;;;;5112011;28;20036;-70
2022/07/25 08:48:41;;;;;;;5.20;4.78;;;27.00;92.00;;;;;;5111873;28;20040;-70
2022/07/25 08:51:08;;;;;;;6.45;4.80;;;26.90;92.10;;;;;;5112111;28;20036;-70
2022/07/25 08:53:35;;;;;;;5.80;4.85;;;26.80;92.50;;;;;;5111697;28;20063;-70
2022/07/25 08:56:03;;;;;;;8.23;4.80;;;26.60;92.30;;;;;;5111097;28;20085;-70
2022/07/25 08:58:29;;;;;;;6.05;4.55;;;26.50;92.30;;;;;;5108324;28;20028;-70
2022/07/25 09:00:57;;;;;;;6.07;4.70;;;26.40;92.40;;;;;;5113654;28;20115;-70
2022/07/25 09:03:22;;;;;;;5.43;4.57;;;26.30;92.40;;;;;;5111694;28;20044;-70
2022/07/25 09:05:48;;;;;;;5.05;4.57;;;26.20;92.60;;;;;;5111297;28;20085;-70
2022/07/25 09:08:16;;;;;;;4.60;4.20;;;26.00;92.90;;;;;;5111776;28;20032;-70
2022/07/25 09:10:50;;;;;;;6.85;4.32;;;26.00;93.10;;;;;;5109233;28;20050;-70
2022/07/25 09:13:17;;;;;;;4.50;4.10;;;25.90;93.00;;;;;;5111927;28;20525;-69
2022/07/25 09:15:52;;;;;;;5.60;4.50;;;25.90;93.40;;;;;;5110310;28;20051;-70
2022/07/25 09:18:23;;;;;;;6.72;4.40;;;25.90;93.20;;;;;;5107585;28;20056;-69
2022/07/25 09:20:49;;;;;;;4.70;4.35;;;26.00;93.50;;;;;;5110195;28;20052;-70
2022/07/25 09:23:28;;;;;;;5.10;4.55;;;26.10;92.70;;;;;;5122872;28;20039;-70
2022/07/25 09:26:03;;;;;;;5.68;4.97;;;26.30;93.30;;;;;;5119012;27;20043;-69
2022/07/25 09:28:29;;;;;;;5.20;4.70;;;26.30;93.40;;;;;;5100973;28;20100;-69
2022/07/25 09:31:00;;;;;;;5.93;4.45;;;26.40;92.50;;;;;;5108044;28;20032;-69
2022/07/25 09:33:27;;;;;;;4.87;3.87;;;26.40;93.50;;;;;;5115478;28;20086;-69
2022/07/25 09:35:54;;;;;;;5.47;3.75;;;26.60;93.00;;;;;;5113496;28;20047;-70
2022/07/25 09:38:20;;;;;;;3.28;2.97;;;26.80;92.50;;;;;;5114001;28;20048;-70
2022/07/25 09:40:53;;;;;;;4.03;2.83;;;26.80;92.10;;;;;;5115049;28;20040;-69
2022/07/25 09:43:19;;;;;;;4.38;2.65;;;26.80;92.50;;;;;;5113624;28;20054;-69
2022/07/25 09:45:49;;;;;;;2.95;2.63;;;26.70;91.60;;;;;;5112485;28;20032;-69
2022/07/25 09:48:18;;;;;;;3.03;2.63;;;26.80;91.70;;;;;;5115131;28;20035;-69
2022/07/25 09:50:44;;;;;;;2.55;2.35;;;26.80;91.60;;;;;;5121917;27;20039;-69
2022/07/25 09:53:10;;;;;;;4.75;2.63;;;26.90;91.60;;;;;;5116236;27;20091;-69
2022/07/25 09:55:36;;;;;;;3.50;2.33;;;26.90;91.80;;;;;;5114408;28;20647;-72
2022/07/25 09:58:02;;;;;;;2.60;2.28;;;27.00;92.00;;;;;;5113468;28;20304;-70
2022/07/25 10:00:30;;;;;;;3.85;2.10;;;27.30;91.30;;;;;;5130138;27;20457;-70
2022/07/25 10:03:05;;;;;;;3.42;2.00;;;27.50;90.70;;;;;;5123412;27;20464;-69
2022/07/25 10:05:30;;;;;;;3.20;2.22;;;27.50;90.60;;;;;;5112405;27;20036;-70
2022/07/25 10:07:56;;;;;;;3.33;2.00;;;27.50;90.30;;;;;;5135278;27;20058;-69
2022/07/25 10:10:29;;;;;;;2.53;2.05;;;27.40;91.00;;;;;;5123274;27;20031;-69
2022/07/25 10:13:14;;;;;;;3.78;2.70;;;27.40;90.80;;;;;;5113574;28;20130;-69
2022/07/25 10:15:52;;;;;;;5.25;2.17;;;27.50;90.50;;;;;;5114545;28;20054;-69
2022/07/25 10:18:21;;;;;;;2.25;1.95;;;27.40;90.50;;;;;;5114714;28;20055;-70
2022/07/25 10:20:48;;;;;;;4.40;1.80;;;27.50;90.00;;;;;;5114641;28;20048;-69
2022/07/25 10:23:19;;;;;;;1.92;1.83;;;27.70;90.10;;;;;;5112159;27;20091;-69
2022/07/25 10:25:45;;;;;;;2.67;1.90;;;27.70;90.20;;;;;;5115149;27;20051;-70
2022/07/25 10:28:15;;;;;;;2.15;1.95;;;27.90;89.70;;;;;;5114091;27;20296;-70
2022/07/25 10:30:42;;;;;;;2.03;1.83;;;28.10;89.70;;;;;;5114786;27;20036;-70
2022/07/25 10:33:16;;;;;;;1.95;1.85;;;28.30;90.20;;;;;;5130300;27;20039;-70
2022/07/25 10:35:44;;;;;;;2.95;1.60;;;28.30;89.90;;;;;;5110424;27;20269;-69
2022/07/25 10:38:10;;;;;;;2.85;1.90;;;28.20;89.30;;;;;;5112795;28;20069;-69
2022/07/25 10:40:46;;;;;;;2.20;1.67;;;28.20;88.80;;;;;;5112624;28;20060;-69
2022/07/25 10:43:16;;;;;;;3.75;1.80;;;28.00;90.20;;;;;;5113932;28;20381;-70
2022/07/25 10:45:51;;;;;;;2.58;1.50;;;28.20;88.80;;;;;;5113782;28;20503;-69
2022/07/25 10:48:26;;;;;;;1.40;1.20;;;28.00;90.20;;;;;;5114107;28;20050;-69
2022/07/25 10:51:22;;;;;;;2.75;1.20;;;28.00;90.40;;;;;;5113890;28;20043;-70
2022/07/25 10:53:48;;;;;;;2.78;1.50;;;27.90;90.30;;;;;;5112468;28;20055;-69
2022/07/25 10:56:18;;;;;;;5.13;1.40;;;27.80;90.50;;;;;;5112568;28;20351;-70
2022/07/25 10:58:51;;;;;;;2.20;1.38;;;27.60;90.60;;;;;;5112440;28;20044;-70
2022/07/25 11:01:31;;;;;;;2.20;1.48;;;27.40;90.50;;;;;;5112157;28;20043;-70
2022/07/25 11:04:02;;;;;;;2.28;1.50;;;26.80;91.70;;;;;;5112230;28;20043;-69
2022/07/25 11:09:24;;;;;;;4.05;1.70;;;26.10;94.40;;;;;;5065622;28;20060;-66
2022/07/25 11:11:52;;;;;;;3.53;1.60;;;25.70;95.50;;;;;;5053810;28;20381;-66
2022/07/25 11:14:25;;;;;;;3.40;1.70;;;25.50;96.90;;;;;;5088353;28;20041;-66
2022/07/25 11:16:52;;;;;;;4.35;2.00;;;25.50;97.60;;;;;;5087455;28;20093;-66
2022/07/25 11:19:28;;;;;;;4.68;1.75;;;25.60;95.60;;;;;;5032323;28;20426;-66
2022/07/25 11:21:59;;;;;;;4.18;2.53;;;25.30;98.60;;;;;;5037383;28;20059;-66
2022/07/25 11:24:39;;;;;;;2.85;2.40;;;25.40;99.20;;;;;;5047773;28;20099;-66
2022/07/25 11:27:07;;;;;;;6.93;2.33;;;25.70;96.90;;;;;;5046230;28;20076;-66
2022/07/25 11:29:33;;;;;;;5.22;2.30;;;25.90;96.70;;;;;;5033550;28;20069;-66
2022/07/25 11:32:04;;;;;;;4.15;2.00;;;26.30;96.60;;;;;;5047460;28;20037;-66
2022/07/25 11:34:33;;;;;;;3.72;1.95;;;26.50;96.90;;;;;;5038833;28;20060;-66
2022/07/25 11:37:01;;;;;;;3.17;1.80;;;26.70;94.90;;;;;;5050379;28;20486;-66
2022/07/25 11:39:29;;;;;;;4.28;2.00;;;26.80;95.00;;;;;;5050388;28;20045;-66
2022/07/25 11:42:06;;;;;;;4.28;2.10;;;26.80;94.40;;;;;;5029855;28;20049;-66
2022/07/25 11:44:36;;;;;;;3.72;2.47;;;26.70;94.40;;;;;;5049902;28;20033;-66
2022/07/25 11:47:04;;;;;;;8.73;2.50;;;26.70;94.10;;;;;;5049298;28;20411;-66
2022/07/25 11:49:30;;;;;;;5.32;2.20;;;26.60;94.50;;;;;;5051070;28;20405;-66
2022/07/25 11:51:56;;;;;;;6.10;2.28;;;26.70;93.60;;;;;;5047936;28;20052;-66
2022/07/25 11:54:22;;;;;;;5.57;2.30;;;26.70;93.50;;;;;;5032984;28;20045;-66
2022/07/25 11:56:47;;;;;;;6.00;1.90;;;26.50;93.40;;;;;;5051072;28;20047;-65
2022/07/25 11:59:13;;;;;;;5.78;2.25;;;26.60;93.10;;;;;;5051180;28;20119;-66
2022/07/25 12:01:41;;;;;;;6.18;2.13;;;26.60;93.20;;;;;;5048161;28;20115;-66
2022/07/25 12:04:09;;;;;;;4.95;1.90;;;26.70;92.80;;;;;;5032657;28;20040;-66
2022/07/25 12:06:34;;;;;;;6.03;2.13;;;26.90;92.60;;;;;;5004330;28;20045;-66
2022/07/25 12:09:13;;;;;;;4.10;2.00;;;26.80;93.00;;;;;;5027492;28;20101;-66
2022/07/25 12:11:39;;;;;;;3.13;2.15;;;26.70;92.90;;;;;;5050687;28;20114;-66
2022/07/25 12:14:05;;;;;;;3.80;2.03;;;26.50;93.30;;;;;;5033139;28;20429;-66
2022/07/25 12:16:31;;;;;;;6.22;2.42;;;26.30;93.50;;;;;;5062789;28;20032;-65
2022/07/25 12:18:57;;;;;;;5.93;2.10;;;26.00;94.00;;;;;;5053232;28;20079;-66
2022/07/25 12:21:22;;;;;;;4.43;2.00;;;25.90;94.10;;;;;;5046367;28;20071;-65
2022/07/25 12:23:48;;;;;;;5.90;2.20;;;26.00;94.70;;;;;;5032945;28;20118;-66
2022/07/25 12:26:14;;;;;;;5.15;1.98;;;26.10;94.40;;;;;;5040093;28;20119;-66
2022/07/25 12:28:40;;;;;;;5.65;1.83;;;26.20;94.00;;;;;;5047838;28;20044;-66
2022/07/25 12:31:05;;;;;;;3.88;1.75;;;26.20;93.90;;;;;;5050454;28;20481;-66
2022/07/25 12:33:31;;;;;;;5.70;2.05;;;26.50;93.70;;;;;;5048229;28;20040;-66
2022/07/25 12:35:58;;;;;;;6.90;1.80;;;26.70;92.80;;;;;;5024353;28;20039;-66
2022/07/25 12:38:24;;;;;;;2.83;1.65;;;26.70;92.90;;;;;;5047743;28;20056;-66
2022/07/25 12:40:50;;;;;;;4.30;2.15;;;26.80;92.80;;;;;;5055606;28;20037;-66
2022/07/25 12:43:17;;;;;;;3.97;1.95;;;26.90;92.30;;;;;;5046355;28;20045;-66